Latest Weather Observations for Moorabbin Airport

IDV60801

Issued at 2:31 pm EDT Tuesday 23 December 2014 (issued every 30 minutes, with the page automatically refreshed every 10 minutes)

About weather observations | Map of weather stations | Latest weather observations for VIC | Other Formats
Station Details ID: 086077 Name: MOORABBIN AIRPORT Lat: -37.98 Lon: 145.10 Height: 12.1 m
Data from the previous 72 hours. | See also: Recent months at Moorabbin Airport
Date/Time
EDT
Temp
°C
App
Temp
°C
Dew
Point
Rel
Hum
%
Delta-T
°C
Wind Press
QNH
hPa
Press
MSL
hPa
Rain
since 9 am
mm
Dir
 
Spd
km/h
Gust
km/h
Spd
kts
Gust
kts
23/02:30pm 23.5 21.4 15.3 60 4.9 SSW 20 26 11 14 1007.9 1007.9 0.0
23/02:00pm 24.1 22.9 16.1 61 4.9 S 17 22 9 12 1007.7 1007.7 0.0
23/01:30pm 24.2 23.3 15.9 59 5.0 SSW 15 20 8 11 1007.7 1007.7 0.0
23/01:00pm 23.6 23.5 16.1 62 4.6 SSW 11 15 6 8 1007.9 1007.9 0.0
23/12:30pm 23.7 22.4 15.7 61 4.8 SSW 17 24 9 13 1008.0 1008.0 0.0
23/12:00pm 22.8 21.3 15.4 63 4.4 SW 17 26 9 14 1008.3 1008.3 0.0
23/11:30am 23.0 21.1 15.8 64 4.3 SW 20 30 11 16 1008.3 1008.3 0.0
23/11:00am 24.4 22.4 16.4 61 4.9 WSW 22 30 12 16 1008.2 1008.2 0.0
23/10:30am 24.2 23.2 16.5 62 4.7 WSW 17 22 9 12 1008.2 1008.2 0.0
23/10:00am 24.5 23.8 15.4 57 5.5 NW 13 22 7 12 1007.9 1007.9 0.0
23/09:30am 23.7 23.8 17.4 68 3.9 NW 13 19 7 10 1007.8 1007.8 0.0
23/09:00am 22.8 22.7 17.0 70 3.6 NNW 13 17 7 9 1007.7 1007.7 0.2
23/08:30am 22.2 21.2 16.7 71 3.4 NNW 17 20 9 11 1007.6 1007.6 0.2
23/08:00am 22.4 22.4 17.1 72 3.3 N 13 15 7 8 1007.2 1007.2 0.2
23/07:30am 22.1 23.0 18.3 79 2.4 N 11 17 6 9 1006.9 1006.9 0.2
23/07:00am 20.7 22.6 19.7 94 0.6 NNE 9 11 5 6 1007.0 1007.0 0.2
23/06:30am 20.4 22.6 19.2 93 0.8 NNE 6 7 3 4 1006.9 1006.9 0.2
23/06:00am 20.4 21.7 19.2 93 0.8 NNE 11 13 6 7 1006.9 1006.9 0.2
23/05:30am 20.5 22.5 18.8 90 1.1 NNW 6 7 3 4 1006.9 1006.9 0.2
23/05:00am 20.4 22.4 18.7 90 1.1 W 6 11 3 6 1006.9 1006.9 0.2
23/04:30am 20.4 22.2 18.7 90 1.1 NNW 7 9 4 5 1006.4 1006.4 0.0
23/04:00am 20.3 21.8 18.8 91 0.9 NNE 9 13 5 7 1006.1 1006.1 0.0
23/03:30am 20.3 21.8 19.0 92 0.8 ENE 9 13 5 7 1005.8 1005.8 0.0
23/03:00am 20.0 21.9 18.5 91 0.9 SSW 6 9 3 5 1005.9 1005.9 0.0
23/02:30am 20.2 21.2 18.7 91 0.9 WSW 11 20 6 11 1006.5 1006.5 0.0
23/02:00am 21.3 21.5 18.5 84 1.8 SW 15 22 8 12 1006.5 1006.5 0.0
23/01:30am 22.3 22.2 17.9 76 2.7 WSW 15 20 8 11 1006.4 1006.4 0.0
23/01:00am 24.7 23.2 16.7 61 4.9 NNE 20 28 11 15 1006.1 1006.1 0.0
23/12:30am 24.4 23.2 16.1 60 5.1 NNE 17 20 9 11 1006.0 1006.0 0.0
23/12:00am 23.4 22.9 17.8 71 3.5 NNE 17 22 9 12 1006.2 1006.2 0.0
 
Date/Time
EDT
Temp
°C
App
Temp
°C
Dew
Point
Rel
Hum
%
Delta-T
°C
Wind Press
QNH
hPa
Press
MSL
hPa
Rain
since 9 am
mm
Dir
 
Spd
km/h
Gust
km/h
Spd
kts
Gust
kts
22/11:30pm 22.7 22.5 17.6 73 3.2 NE 15 15 8 8 1006.4 1006.4 0.0
22/11:00pm 22.0 23.3 17.6 76 2.7 NE 7 11 4 6 1007.0 1007.0 0.0
22/10:30pm 21.9 22.3 17.3 75 2.8 NNE 11 15 6 8 1007.4 1007.4 0.0
22/10:00pm 21.6 20.6 17.6 78 2.5 NW 19 33 10 18 1008.1 1008.1 0.0
22/09:30pm 22.0 22.9 17.6 76 2.7 WNW 9 17 5 9 1007.2 1007.2 0.0
22/09:00pm 21.8 23.1 17.6 77 2.6 S 7 13 4 7 1006.7 1006.7 0.0
22/08:30pm 22.0 23.3 17.6 76 2.7 WNW 7 11 4 6 1006.9 1006.9 0.0
22/08:00pm 22.8 23.9 17.9 74 3.1 WNW 9 17 5 9 1006.7 1006.7 0.0
22/07:30pm 22.9 25.4 18.2 75 2.9 SW 2 9 1 5 1006.3 1006.3 0.0
22/07:00pm 22.5 22.5 18.1 76 2.8 SW 15 19 8 10 1006.2 1006.2 0.0
22/06:30pm 24.2 24.3 18.4 70 3.7 SW 15 20 8 11 1006.3 1006.3 0.0
22/06:00pm 26.6 26.4 18.5 61 5.2 SSE 17 20 9 11 1006.4 1006.4 0.0
22/05:30pm 26.4 27.5 18.8 63 4.9 S 11 15 6 8 1006.7 1006.7 0.0
22/05:00pm 25.5 26.9 18.7 66 4.3 SW 9 11 5 6 1007.4 1007.4 0.0
22/04:30pm 25.3 25.7 18.2 64 4.5 SSW 13 17 7 9 1007.6 1007.6 0.0
22/04:00pm 23.7 24.1 18.1 71 3.5 SSW 13 19 7 10 1008.3 1008.3 0.0
22/03:30pm 23.9 23.7 17.6 68 3.9 SW 15 17 8 9 1009.0 1009.0 0.0
22/03:00pm 24.5 24.7 17.7 66 4.3 SW 13 17 7 9 1009.6 1009.6 0.0
22/02:30pm 24.3 23.7 17.5 66 4.2 SSW 17 22 9 12 1010.2 1010.2 0.0
22/02:00pm 22.9 21.6 16.9 69 3.7 SW 19 22 10 12 1010.7 1010.7 0.0
22/01:30pm 22.0 20.6 16.9 73 3.1 SW 20 32 11 17 1011.3 1011.3 0.0
22/01:00pm 21.6 19.2 16.3 72 3.2 SW 24 32 13 17 1011.7 1011.7 0.0
22/12:30pm 21.3 19.6 16.3 73 3.0 SW 20 28 11 15 1011.8 1011.8 0.0
22/12:00pm 22.6 21.8 17.1 71 3.4 SW 17 20 9 11 1012.1 1012.1 0.0
22/11:30am 20.9 20.4 15.9 73 3.0 SSW 13 17 7 9 1012.1 1012.1 0.0
22/11:00am 22.0 21.4 16.7 72 3.2 SSW 15 20 8 11 1012.5 1012.5 0.0
22/10:30am 20.2 18.9 15.8 76 2.6 SSW 17 20 9 11 1013.0 1013.0 0.0
22/10:00am 20.4 20.2 15.8 75 2.7 WSW 11 15 6 8 1013.0 1013.0 0.0
22/09:51am 20.4 20.9 15.6 74 2.9 WSW 7 17 4 9 1012.9 1012.9 0.0
22/09:30am 20.4 21.7 16.2 77 2.5 NNW 4 11 2 6 1013.1 1013.1 0.0
22/09:00am 18.7 19.1 14.8 78 2.3 NE 6 9 3 5 1013.2 1013.2 0.0
22/08:30am 18.3 18.6 15.0 81 1.9 ESE 7 9 4 5 1013.0 1013.0 0.0
22/08:00am 17.9 19.1 14.8 82 1.8 SE 2 7 1 4 1013.2 1013.2 0.0
22/07:30am 17.6 17.9 14.9 84 1.6 ESE 7 13 4 7 1013.2 1013.2 0.0
22/07:00am 17.2 18.4 15.0 87 1.3 SSE 2 6 1 3 1013.0 1013.0 0.0
22/06:30am 17.1 18.0 15.1 88 1.2 SSE 4 9 2 5 1012.9 1012.9 0.0
22/06:00am 17.0 16.9 15.0 88 1.2 SSE 9 15 5 8 1012.6 1012.6 0.0
22/05:30am 16.9 16.8 14.9 88 1.2 SE 9 13 5 7 1012.5 1012.5 0.0
22/05:00am 16.8 16.6 14.8 88 1.2 ESE 9 13 5 7 1012.5 1012.5 0.0
22/04:30am 16.7 16.2 14.9 89 1.0 SE 11 13 6 7 1012.6 1012.6 0.0
22/04:00am 16.9 16.3 14.5 86 1.4 SE 11 15 6 8 1012.5 1012.5 0.0
22/03:59am 16.9 16.3 14.5 86 1.4 SE 11 15 6 8 1012.5 1012.5 0.0
22/03:30am 16.6 16.2 14.1 85 1.4 SE 9 13 5 7 1012.7 1012.7 0.0
22/03:00am 16.7 16.5 13.6 82 1.7 SE 7 13 4 7 1012.7 1012.7 0.0
22/02:30am 17.0 15.8 13.9 82 1.8 SSE 13 15 7 8 1013.0 1013.0 0.0
22/02:00am 17.2 17.1 13.3 78 2.2 SE 6 7 3 4 1013.2 1013.2 0.0
22/01:30am 17.7 18.8 13.4 76 2.4 CALM 0 0 0 0 1013.7 1013.7 0.0
22/01:00am 17.8 17.9 14.5 81 1.9 SSW 7 13 4 7 1013.9 1013.9 0.0
22/12:30am 18.5 18.1 14.2 76 2.5 SSW 9 13 5 7 1014.1 1014.1 0.0
22/12:00am 19.1 18.6 13.9 72 3.0 SSW 9 15 5 8 1014.0 1014.0 0.0
 
Date/Time
EDT
Temp
°C
App
Temp
°C
Dew
Point
Rel
Hum
%
Delta-T
°C
Wind Press
QNH
hPa
Press
MSL
hPa
Rain
since 9 am
mm
Dir
 
Spd
km/h
Gust
km/h
Spd
kts
Gust
kts
21/11:30pm 19.5 19.4 13.9 70 3.2 SSW 7 11 4 6 1013.8 1013.8 0.0
21/11:00pm 20.0 18.2 12.0 60 4.5 S 13 15 7 8 1014.0 1014.0 0.0
21/10:30pm 21.5 18.7 11.5 53 5.6 S 17 26 9 14 1013.8 1013.8 0.0
21/10:00pm 22.3 19.8 11.1 49 6.2 S 15 20 8 11 1013.4 1013.4 0.0
21/09:30pm 23.1 20.5 12.1 50 6.2 S 17 26 9 14 1012.8 1012.8 0.0
21/09:00pm 24.9 22.3 10.7 40 7.9 S 15 20 8 11 1012.2 1012.2 0.0
21/08:30pm 25.9 23.0 10.9 39 8.4 SE 17 20 9 11 1011.7 1011.7 0.0
21/08:00pm 26.7 23.3 11.2 38 8.8 SSE 20 24 11 13 1011.6 1011.6 0.0
21/07:30pm 26.9 23.4 11.0 37 9.0 SSE 20 26 11 14 1011.1 1011.1 0.0
21/07:00pm 27.5 24.2 11.5 37 9.2 SSE 20 28 11 15 1011.0 1011.0 0.0
21/06:30pm 28.4 24.8 11.9 36 9.5 SE 22 30 12 16 1010.5 1010.5 0.0
21/06:00pm 28.9 23.9 12.3 36 9.7 SE 30 39 16 21 1010.5 1010.5 0.0
21/05:30pm 29.7 26.8 15.0 40 9.0 SSW 24 30 13 16 1010.6 1010.6 0.0
21/05:00pm 30.8 27.3 10.2 28 11.7 SSW 19 22 10 12 1010.6 1010.6 0.0
21/04:30pm 31.3 28.8 11.1 29 11.7 SSW 15 20 8 11 1010.9 1010.9 0.0
21/04:00pm 31.2 27.3 9.4 26 12.3 SSW 20 26 11 14 1011.1 1011.1 0.0
21/03:30pm 31.3 27.6 9.5 26 12.3 SSW 19 26 10 14 1011.5 1011.5 0.0
21/03:00pm 30.5 26.8 9.4 27 11.8 SSW 19 24 10 13 1012.0 1012.0 0.0
21/02:30pm 30.8 27.9 9.6 27 12.0 S 15 22 8 12 1012.2 1012.2 0.0
21/02:00pm 30.4 28.5 10.4 29 11.4 S 11 17 6 9 1012.7 1012.7 0.0
21/01:30pm 28.9 27.1 13.2 38 9.3 SSW 15 19 8 10 1013.1 1013.1 0.0
21/01:00pm 28.7 27.8 15.9 45 7.9 SSW 15 20 8 11 1013.3 1013.3 0.0
21/12:30pm 28.6 28.4 14.8 43 8.4 SW 9 15 5 8 1013.5 1013.5 0.0
21/12:00pm 28.7 28.1 12.2 36 9.6 ENE 7 13 4 7 1013.7 1013.7 0.0
21/11:30am 26.6 25.1 10.7 37 8.9 SE 9 15 5 8 1013.8 1013.8 0.0
21/11:00am 25.3 24.8 12.5 45 7.4 SW 7 11 4 6 1014.0 1014.0 0.0
21/10:30am 23.9 23.3 11.6 46 6.9 E 6 13 3 7 1014.0 1014.0 0.0
21/10:00am 22.7 22.7 12.3 52 5.9 ESE 4 9 2 5 1014.2 1014.2 0.0
21/09:30am 20.1 19.6 12.1 60 4.5 E 6 11 3 6 1014.8 1014.8 0.0
21/09:00am 19.2 18.3 12.7 66 3.6 NE 9 13 5 7 1014.9 1014.9 0.0
21/08:30am 17.8 16.0 12.0 69 3.2 NE 13 15 7 8 1014.8 1014.8 0.0
21/08:00am 16.2 14.2 11.6 74 2.5 NE 13 17 7 9 1014.6 1014.6 0.0
21/07:30am 15.6 14.6 12.2 80 1.9 NE 9 11 5 6 1015.2 1015.2 0.0
21/07:00am 14.4 14.2 11.7 84 1.4 NNE 4 9 2 5 1015.2 1015.2 0.0
21/06:30am 12.9 12.6 11.3 90 0.8 NE 4 6 2 3 1015.2 1015.2 0.0
21/06:00am 12.2 11.3 10.6 90 0.8 N 6 6 3 3 1014.8 1014.8 0.0
21/05:30am 12.3 11.3 11.0 92 0.7 NW 7 7 4 4 1014.7 1014.7 0.0
21/05:00am 12.7 12.4 11.3 91 0.7 NNE 4 6 2 3 1014.1 1014.1 0.0
21/04:30am 13.3 12.7 11.7 90 0.9 NNE 6 7 3 4 1014.3 1014.3 0.0
21/04:00am 13.2 12.4 11.6 90 0.9 NE 7 7 4 4 1014.3 1014.3 0.0
21/03:30am 13.2 12.5 11.9 92 0.7 E 7 7 4 4 1014.7 1014.7 0.0
21/03:00am 12.7 12.0 11.3 91 0.7 ESE 6 6 3 3 1015.2 1015.2 0.0
21/02:30am 13.0 12.1 11.4 90 0.8 ESE 7 9 4 5 1015.6 1015.6 0.0
21/02:00am 13.0 11.7 11.1 88 1.0 SE 9 9 5 5 1015.8 1015.8 0.0
21/01:30am 13.0 12.0 10.9 87 1.1 SE 7 9 4 5 1016.2 1016.2 0.0
21/01:00am 13.9 13.3 11.6 86 1.2 ESE 6 9 3 5 1016.7 1016.7 0.0
21/12:30am 13.6 12.6 10.9 84 1.4 SE 7 9 4 5 1017.0 1017.0 0.0
21/12:00am 14.5 13.4 11.8 84 1.5 SSE 9 13 5 7 1017.3 1017.3 0.0
 
Date/Time
EDT
Temp
°C
App
Temp
°C
Dew
Point
Rel
Hum
%
Delta-T
°C
Wind Press
QNH
hPa
Press
MSL
hPa
Rain
since 9 am
mm
Dir
 
Spd
km/h
Gust
km/h
Spd
kts
Gust
kts
20/11:30pm 14.7 13.5 11.7 82 1.6 SE 9 11 5 6 1017.4 1017.4 0.0
20/11:00pm 14.9 13.6 11.3 79 1.9 SE 9 11 5 6 1017.7 1017.7 0.0
20/10:30pm 15.5 14.0 11.9 79 2.0 SE 11 15 6 8 1017.7 1017.7 0.0
20/10:00pm 16.0 14.1 11.8 76 2.3 SE 13 17 7 9 1018.0 1018.0 0.0
20/09:30pm 16.3 13.9 11.5 73 2.6 SE 15 20 8 11 1017.6 1017.6 0.0
20/09:00pm 17.0 14.2 11.3 69 3.1 SE 17 19 9 10 1017.4 1017.4 0.0
20/08:30pm 18.1 14.9 11.2 64 3.7 SE 19 24 10 13 1017.3 1017.3 0.0
20/08:00pm 19.3 16.6 11.6 61 4.2 SSE 17 20 9 11 1017.0 1017.0 0.0
20/07:30pm 20.0 16.9 11.7 59 4.6 SSE 19 26 10 14 1016.8 1016.8 0.0
20/07:00pm 20.9 18.1 12.6 59 4.7 SSE 19 24 10 13 1016.5 1016.5 0.0
20/06:30pm 20.0 16.4 13.0 64 4.0 SSW 24 32 13 17 1016.4 1016.4 0.0
20/06:00pm 20.2 16.3 13.2 64 4.0 SSW 26 32 14 17 1016.2 1016.2 0.0
20/05:30pm 20.4 16.8 13.1 63 4.2 SSW 24 32 13 17 1016.4 1016.4 0.0
20/05:00pm 20.5 16.9 12.0 58 4.7 SW 22 28 12 15 1016.7 1016.7 0.0
20/04:30pm 20.7 17.4 10.8 53 5.4 SSW 19 24 10 13 1016.8 1016.8 0.0
20/04:00pm 20.4 17.0 10.5 53 5.4 SSW 19 24 10 13 1017.2 1017.2 0.0
20/03:30pm 20.3 16.8 8.9 48 6.0 SSW 17 26 9 14 1017.5 1017.5 0.0
20/03:00pm 20.4 17.8 9.3 49 5.9 S 13 20 7 11 1017.9 1017.9 0.0

Other Formats:

Comma delimited format used in spreadsheet applications
http://www.bom.gov.au/fwo/IDV60801/IDV60801.94870.axf

JavaScript Object Notation format (JSON) in row-major order
http://www.bom.gov.au/fwo/IDV60801/IDV60801.94870.json